createdAt,value
2022-11-03T00:00:51.665Z,961.68
2022-11-03T00:01:51.664Z,961.69
2022-11-03T00:02:51.643Z,961.71
2022-11-03T00:03:51.604Z,961.65
2022-11-03T00:04:51.770Z,961.70
2022-11-03T00:05:51.554Z,961.68
2022-11-03T00:06:51.854Z,961.72
2022-11-03T00:07:51.533Z,961.70
2022-11-03T00:08:51.540Z,961.71
2022-11-03T00:09:51.499Z,961.71
2022-11-03T00:10:51.529Z,961.70
2022-11-03T00:11:51.471Z,961.69
2022-11-03T00:12:51.470Z,961.67
2022-11-03T00:13:51.765Z,961.63
2022-11-03T00:14:51.434Z,961.62
2022-11-03T00:15:51.419Z,961.63
2022-11-03T00:16:51.434Z,961.61
2022-11-03T00:17:52.060Z,961.63
2022-11-03T00:18:51.380Z,961.59
2022-11-03T00:19:51.679Z,961.62
2022-11-03T00:20:51.361Z,961.62
2022-11-03T00:21:51.328Z,961.64
2022-11-03T00:22:51.365Z,961.65
2022-11-03T00:23:51.321Z,961.62
2022-11-03T00:24:51.316Z,961.61
2022-11-03T00:25:51.285Z,961.55
2022-11-03T00:26:51.303Z,961.59
2022-11-03T00:27:51.281Z,961.56
2022-11-03T00:28:51.292Z,961.61
2022-11-03T00:29:51.320Z,961.55
2022-11-03T00:30:51.208Z,961.55
2022-11-03T00:31:51.271Z,961.53
2022-11-03T00:32:51.214Z,961.47
2022-11-03T00:33:51.167Z,961.48
2022-11-03T00:34:51.191Z,961.51
2022-11-03T00:35:51.160Z,961.47
2022-11-03T00:36:51.120Z,961.46
2022-11-03T00:37:51.112Z,961.42
2022-11-03T00:38:51.219Z,961.37
2022-11-03T00:39:51.092Z,961.34
2022-11-03T00:40:51.113Z,961.35
2022-11-03T00:41:51.059Z,961.31
2022-11-03T00:42:51.039Z,961.35
2022-11-03T00:43:51.038Z,961.38
2022-11-03T00:44:51.019Z,961.34
2022-11-03T00:45:50.998Z,961.34
2022-11-03T00:46:51.024Z,961.30
2022-11-03T00:47:50.998Z,961.27
2022-11-03T00:48:50.956Z,961.24
2022-11-03T00:49:50.934Z,961.24
2022-11-03T00:50:50.946Z,961.22
2022-11-03T00:51:50.927Z,961.20
2022-11-03T00:52:50.927Z,961.25
2022-11-03T00:53:50.877Z,961.21
2022-11-03T00:54:54.339Z,961.23
2022-11-03T00:55:50.850Z,961.25
2022-11-03T00:56:50.849Z,961.19
2022-11-03T00:57:50.861Z,961.16
2022-11-03T00:58:51.050Z,961.03
2022-11-03T00:59:50.799Z,961.08
2022-11-03T01:00:50.860Z,961.06
2022-11-03T01:01:50.846Z,961.07
2022-11-03T01:02:50.765Z,961.06
2022-11-03T01:03:50.734Z,961.03
2022-11-03T01:04:50.779Z,960.98
2022-11-03T01:05:50.725Z,961.03
2022-11-03T01:06:50.793Z,961.03
2022-11-03T01:07:50.724Z,960.95
2022-11-03T01:08:50.679Z,961.03
2022-11-03T01:09:50.661Z,961.06
2022-11-03T01:10:50.715Z,961.05
2022-11-03T01:11:50.643Z,961.04
2022-11-03T01:12:50.627Z,961.05
2022-11-03T01:13:50.599Z,961.09
2022-11-03T01:14:50.592Z,961.16
2022-11-03T01:15:50.581Z,961.16
2022-11-03T01:16:50.608Z,961.17
2022-11-03T01:17:50.542Z,961.17
2022-11-03T01:18:50.531Z,961.17
2022-11-03T01:19:50.528Z,961.17
2022-11-03T01:20:50.523Z,961.18
2022-11-03T01:21:50.495Z,961.22
2022-11-03T01:22:50.513Z,961.19
2022-11-03T01:23:50.462Z,961.19
2022-11-03T01:24:50.459Z,961.17
2022-11-03T01:25:50.441Z,961.15
2022-11-03T01:26:50.466Z,961.15
2022-11-03T01:27:50.466Z,961.18
2022-11-03T01:28:50.435Z,961.15
2022-11-03T01:29:50.395Z,961.16
2022-11-03T01:30:50.368Z,961.16
2022-11-03T01:31:50.346Z,961.14
2022-11-03T01:32:50.347Z,961.12
2022-11-03T01:33:50.336Z,961.10
2022-11-03T01:34:50.357Z,961.05
2022-11-03T01:35:50.307Z,961.00
2022-11-03T01:36:50.308Z,961.02
2022-11-03T01:37:50.265Z,960.96
2022-11-03T01:38:50.258Z,960.97
2022-11-03T01:39:50.250Z,960.91
2022-11-03T01:40:50.279Z,960.93
2022-11-03T01:41:50.207Z,960.95
2022-11-03T01:42:50.216Z,960.95
2022-11-03T01:43:50.188Z,960.94
2022-11-03T01:44:50.177Z,960.87
2022-11-03T01:45:50.154Z,960.86
2022-11-03T01:46:50.201Z,960.86
2022-11-03T01:47:50.168Z,960.86
2022-11-03T01:48:50.118Z,960.82
2022-11-03T01:49:50.101Z,960.81
2022-11-03T01:50:50.102Z,960.78
2022-11-03T01:51:50.063Z,960.79
2022-11-03T01:52:50.102Z,960.75
2022-11-03T01:53:50.041Z,960.77
2022-11-03T01:54:50.046Z,960.71
2022-11-03T01:55:50.028Z,960.74
2022-11-03T01:56:50.024Z,960.69
2022-11-03T01:57:50.137Z,960.67
2022-11-03T01:58:50.008Z,960.68
2022-11-03T01:59:49.979Z,960.65
2022-11-03T02:00:50.017Z,960.66
2022-11-03T02:01:50.009Z,960.66
2022-11-03T02:02:49.929Z,960.62
2022-11-03T02:03:49.898Z,960.63
2022-11-03T02:04:49.932Z,960.65
2022-11-03T02:05:49.882Z,960.61
2022-11-03T02:06:49.887Z,960.63
2022-11-03T02:07:49.846Z,960.65
2022-11-03T02:08:49.828Z,960.67
2022-11-03T02:09:50.064Z,960.64
2022-11-03T02:10:50.398Z,960.61
2022-11-03T02:11:50.230Z,960.61
2022-11-03T02:12:50.727Z,960.62
2022-11-03T02:13:49.809Z,960.61
2022-11-03T02:14:49.759Z,960.65
2022-11-03T02:15:50.869Z,960.59
2022-11-03T02:16:50.085Z,960.56
2022-11-03T02:17:49.726Z,960.54
2022-11-03T02:18:49.944Z,960.59
2022-11-03T02:19:49.686Z,960.56
2022-11-03T02:20:49.666Z,960.55
2022-11-03T02:21:49.658Z,960.51
2022-11-03T02:22:49.666Z,960.54
2022-11-03T02:23:49.626Z,960.56
2022-11-03T02:24:52.985Z,960.55
2022-11-03T02:25:49.619Z,960.50
2022-11-03T02:26:49.584Z,960.46
2022-11-03T02:27:49.570Z,960.43
2022-11-03T02:28:49.583Z,960.40
2022-11-03T02:29:49.548Z,960.41
2022-11-03T02:30:49.527Z,960.39
2022-11-03T02:31:49.517Z,960.42
2022-11-03T02:32:49.500Z,960.33
2022-11-03T02:33:49.499Z,960.33
2022-11-03T02:34:49.531Z,960.32
2022-11-03T02:35:49.465Z,960.30
2022-11-03T02:36:49.456Z,960.27
2022-11-03T02:37:49.432Z,960.33
2022-11-03T02:38:49.420Z,960.31
2022-11-03T02:39:49.392Z,960.32
2022-11-03T02:40:49.440Z,960.32
2022-11-03T02:41:49.374Z,960.29
2022-11-03T02:42:49.359Z,960.29
2022-11-03T02:43:49.350Z,960.29
2022-11-03T02:44:49.332Z,960.28
2022-11-03T02:45:49.317Z,960.23
2022-11-03T02:46:49.346Z,960.23
2022-11-03T02:47:49.307Z,960.17
2022-11-03T02:48:49.283Z,960.15
2022-11-03T02:49:49.334Z,960.14
2022-11-03T02:50:49.276Z,960.13
2022-11-03T02:51:49.230Z,960.13
2022-11-03T02:52:49.283Z,960.12
2022-11-03T02:53:49.211Z,960.08
2022-11-03T02:54:49.200Z,960.03
2022-11-03T02:55:49.192Z,960.03
2022-11-03T02:56:49.166Z,960.06
2022-11-03T02:57:49.153Z,960.01
2022-11-03T02:58:49.362Z,960.06
2022-11-03T02:59:49.128Z,959.99
2022-11-03T03:00:49.207Z,959.99
2022-11-03T03:01:49.261Z,959.98
2022-11-03T03:02:49.096Z,959.96
2022-11-03T03:03:49.075Z,959.92
2022-11-03T03:04:49.094Z,959.91
2022-11-03T03:05:49.040Z,959.95
2022-11-03T03:06:49.080Z,960.00
2022-11-03T03:07:49.013Z,959.97
2022-11-03T03:08:48.996Z,960.00
2022-11-03T03:09:48.982Z,959.99
2022-11-03T03:10:49.022Z,960.00
2022-11-03T03:11:48.961Z,959.95
2022-11-03T03:12:48.942Z,959.92
2022-11-03T03:13:48.943Z,959.92
2022-11-03T03:14:48.924Z,959.94
2022-11-03T03:15:48.899Z,959.93
2022-11-03T03:16:48.935Z,959.91
2022-11-03T03:17:48.882Z,959.94
2022-11-03T03:18:48.865Z,959.94
2022-11-03T03:19:48.872Z,959.91
2022-11-03T03:20:48.815Z,959.93
2022-11-03T03:21:48.821Z,959.90
2022-11-03T03:22:48.983Z,959.89
2022-11-03T03:23:48.788Z,959.89
2022-11-03T03:24:48.773Z,959.91
2022-11-03T03:25:48.765Z,959.87
2022-11-03T03:26:48.743Z,959.91
2022-11-03T03:27:48.843Z,959.90
2022-11-03T03:28:48.764Z,959.93
2022-11-03T03:29:48.713Z,959.88
2022-11-03T03:30:48.760Z,959.86
2022-11-03T03:31:48.705Z,959.82
2022-11-03T03:32:48.714Z,959.79
2022-11-03T03:33:48.760Z,959.78
2022-11-03T03:34:48.751Z,959.77
2022-11-03T03:35:49.420Z,959.77
2022-11-03T03:36:48.728Z,959.78
2022-11-03T03:37:48.775Z,959.76
2022-11-03T03:38:49.431Z,959.76
2022-11-03T03:39:49.136Z,959.70
2022-11-03T03:40:48.801Z,959.67
2022-11-03T03:41:48.772Z,959.67
2022-11-03T03:42:48.803Z,959.66
2022-11-03T03:43:48.513Z,959.66
2022-11-03T03:44:48.487Z,959.68
2022-11-03T03:45:48.502Z,959.63
2022-11-03T03:46:48.626Z,959.65
2022-11-03T03:47:48.632Z,959.65
2022-11-03T03:48:48.492Z,959.61
2022-11-03T03:49:48.487Z,959.63
2022-11-03T03:50:48.494Z,959.61
2022-11-03T03:51:49.199Z,959.64
2022-11-03T03:52:49.033Z,959.59
2022-11-03T03:53:49.120Z,959.59
2022-11-03T03:54:48.553Z,959.58
2022-11-03T03:55:49.216Z,959.57
2022-11-03T03:56:48.346Z,959.55
2022-11-03T03:57:48.487Z,959.58
2022-11-03T03:58:48.783Z,959.54
2022-11-03T03:59:48.535Z,959.54
2022-11-03T04:00:49.239Z,959.52
2022-11-03T04:01:48.470Z,959.46
2022-11-03T04:02:48.487Z,959.48
2022-11-03T04:03:48.418Z,959.48
2022-11-03T04:04:48.525Z,959.48
2022-11-03T04:05:49.087Z,959.48
2022-11-03T04:06:48.726Z,959.42
2022-11-03T04:07:48.483Z,959.48
2022-11-03T04:08:48.337Z,959.43
2022-11-03T04:09:48.321Z,959.40
2022-11-03T04:10:48.397Z,959.32
2022-11-03T04:11:48.131Z,959.30
2022-11-03T04:12:48.140Z,959.28
2022-11-03T04:13:48.176Z,959.22
2022-11-03T04:14:48.088Z,959.24
2022-11-03T04:15:48.065Z,959.19
2022-11-03T04:16:48.085Z,959.15
2022-11-03T04:18:48.053Z,959.14
2022-11-03T04:19:48.042Z,959.17
2022-11-03T04:20:47.993Z,959.14
2022-11-03T04:21:47.985Z,959.12
2022-11-03T04:22:48.029Z,959.14
2022-11-03T04:23:47.964Z,959.17
2022-11-03T04:24:47.940Z,959.12
2022-11-03T04:25:47.924Z,959.12
2022-11-03T04:26:47.913Z,959.16
2022-11-03T04:27:47.899Z,959.20
2022-11-03T04:28:48.159Z,959.20
2022-11-03T04:29:47.870Z,959.20
2022-11-03T04:30:47.857Z,959.18
2022-11-03T04:31:47.862Z,959.14
2022-11-03T04:32:47.833Z,959.15
2022-11-03T04:33:47.812Z,959.14
2022-11-03T04:34:47.835Z,959.11
2022-11-03T04:35:47.791Z,959.12
2022-11-03T04:36:47.771Z,959.10
2022-11-03T04:37:48.179Z,959.09
2022-11-03T04:38:47.758Z,959.11
2022-11-03T04:39:47.741Z,959.07
2022-11-03T04:40:49.174Z,959.11
2022-11-03T04:41:47.704Z,959.08
2022-11-03T04:42:47.693Z,959.08
2022-11-03T04:43:47.677Z,959.05
2022-11-03T04:44:47.660Z,959.01
2022-11-03T04:45:47.643Z,959.00
2022-11-03T04:46:47.680Z,958.96
2022-11-03T04:47:47.629Z,958.99
2022-11-03T04:48:47.614Z,958.95
2022-11-03T04:49:47.589Z,958.94
2022-11-03T04:50:47.574Z,958.92
2022-11-03T04:51:47.571Z,958.88
2022-11-03T04:52:47.574Z,958.89
2022-11-03T04:53:47.543Z,958.91
2022-11-03T04:54:47.525Z,958.89
2022-11-03T04:55:47.508Z,958.86
2022-11-03T04:56:47.528Z,958.83
2022-11-03T04:57:47.485Z,958.79
2022-11-03T04:58:47.496Z,958.74
2022-11-03T04:59:47.606Z,958.74
2022-11-03T05:00:47.464Z,958.71
2022-11-03T05:01:47.656Z,958.71
2022-11-03T05:02:49.144Z,958.67
2022-11-03T05:03:47.394Z,958.72
2022-11-03T05:04:47.411Z,958.70
2022-11-03T05:05:47.386Z,958.71
2022-11-03T05:06:47.352Z,958.74
2022-11-03T05:07:47.340Z,958.78
2022-11-03T05:08:47.324Z,958.82
2022-11-03T05:09:47.315Z,958.81
2022-11-03T05:10:47.325Z,958.80
2022-11-03T05:11:47.304Z,958.80
2022-11-03T05:12:47.262Z,958.81
2022-11-03T05:13:47.252Z,958.86
2022-11-03T05:14:47.258Z,958.81
2022-11-03T05:15:47.232Z,958.73
2022-11-03T05:16:47.246Z,958.71
2022-11-03T05:17:47.226Z,958.67
2022-11-03T05:18:47.192Z,958.67
2022-11-03T05:19:47.172Z,958.68
2022-11-03T05:20:47.156Z,958.70
2022-11-03T05:21:47.146Z,958.64
2022-11-03T05:22:47.168Z,958.62
2022-11-03T05:23:47.116Z,958.60
2022-11-03T05:24:47.098Z,958.56
2022-11-03T05:25:47.087Z,958.57
2022-11-03T05:26:47.076Z,958.61
2022-11-03T05:27:47.081Z,958.58
2022-11-03T05:28:47.075Z,958.56
2022-11-03T05:29:47.032Z,958.54
2022-11-03T05:30:47.005Z,958.51
2022-11-03T05:31:47.012Z,958.49
2022-11-03T05:32:46.991Z,958.52
2022-11-03T05:33:46.996Z,958.54
2022-11-03T05:34:47.167Z,958.53
2022-11-03T05:35:46.954Z,958.49
2022-11-03T05:36:46.944Z,958.46
2022-11-03T05:37:46.932Z,958.50
2022-11-03T05:38:46.899Z,958.50
2022-11-03T05:39:46.909Z,958.55
2022-11-03T05:40:46.922Z,958.56
2022-11-03T05:41:46.860Z,958.52
2022-11-03T05:42:46.860Z,958.51
2022-11-03T05:43:46.857Z,958.49
2022-11-03T05:44:46.823Z,958.49
2022-11-03T05:45:46.812Z,958.47
2022-11-03T05:46:46.830Z,958.50
2022-11-03T05:47:46.782Z,958.45
2022-11-03T05:48:46.761Z,958.46
2022-11-03T05:49:46.780Z,958.50
2022-11-03T05:50:46.730Z,958.45
2022-11-03T05:51:46.734Z,958.40
2022-11-03T05:52:46.738Z,958.50
2022-11-03T05:53:46.705Z,958.48
2022-11-03T05:54:46.697Z,958.52
2022-11-03T05:55:46.681Z,958.49
2022-11-03T05:56:46.678Z,958.52
2022-11-03T05:57:46.645Z,958.44
2022-11-03T05:58:46.657Z,958.49
2022-11-03T05:59:46.618Z,958.46
2022-11-03T06:00:48.959Z,958.47
2022-11-03T06:01:46.645Z,958.44
2022-11-03T06:02:46.596Z,958.40
2022-11-03T06:03:46.592Z,958.43
2022-11-03T06:04:46.566Z,958.44
2022-11-03T06:05:46.540Z,958.43
2022-11-03T06:06:46.541Z,958.40
2022-11-03T06:07:46.510Z,958.40
2022-11-03T06:08:46.504Z,958.36
2022-11-03T06:09:46.495Z,958.38
2022-11-03T06:10:46.500Z,958.40
2022-11-03T06:11:46.447Z,958.41
2022-11-03T06:12:46.424Z,958.44
2022-11-03T06:13:46.445Z,958.42
2022-11-03T06:14:46.403Z,958.38
2022-11-03T06:15:46.397Z,958.36
2022-11-03T06:16:46.428Z,958.35
2022-11-03T06:17:46.376Z,958.34
2022-11-03T06:18:46.376Z,958.24
2022-11-03T06:19:46.340Z,958.21
2022-11-03T06:20:46.336Z,958.17
2022-11-03T06:21:46.324Z,958.19
2022-11-03T06:22:46.331Z,958.19
2022-11-03T06:23:46.277Z,958.15
2022-11-03T06:24:46.271Z,958.13
2022-11-03T06:25:46.260Z,958.06
2022-11-03T06:26:46.252Z,958.09
2022-11-03T06:27:46.222Z,958.06
2022-11-03T06:28:46.271Z,958.06
2022-11-03T06:29:46.235Z,958.06
2022-11-03T06:30:46.253Z,958.02
2022-11-03T06:31:46.185Z,958.10
2022-11-03T06:32:46.160Z,958.08
2022-11-03T06:33:46.179Z,958.06
2022-11-03T06:34:46.164Z,958.08
2022-11-03T06:35:46.108Z,958.12
2022-11-03T06:36:46.107Z,958.14
2022-11-03T06:37:46.097Z,958.16
2022-11-03T06:38:46.071Z,958.17
2022-11-03T06:39:46.072Z,958.15
2022-11-03T06:40:46.206Z,958.15
2022-11-03T06:41:46.033Z,958.16
2022-11-03T06:42:46.024Z,958.09
2022-11-03T06:43:46.003Z,958.11
2022-11-03T06:44:46.679Z,958.01
2022-11-03T06:45:45.967Z,958.01
2022-11-03T06:46:45.997Z,957.94
2022-11-03T06:47:45.948Z,957.94
2022-11-03T06:48:45.935Z,957.92
2022-11-03T06:49:45.935Z,957.94
2022-11-03T06:50:45.924Z,957.91
2022-11-03T06:51:45.886Z,957.94
2022-11-03T06:52:45.998Z,957.94
2022-11-03T06:53:45.860Z,957.90
2022-11-03T06:54:45.857Z,957.87
2022-11-03T06:55:45.852Z,957.82
2022-11-03T06:56:45.822Z,957.83
2022-11-03T06:57:45.820Z,957.74
2022-11-03T06:58:45.856Z,957.72
2022-11-03T06:59:45.768Z,957.72
2022-11-03T07:00:50.991Z,957.71
2022-11-03T07:01:46.853Z,957.73
2022-11-03T07:02:45.744Z,957.72
2022-11-03T07:03:45.729Z,957.75
2022-11-03T07:04:45.751Z,957.73
2022-11-03T07:05:45.688Z,957.73
2022-11-03T07:06:49.080Z,957.73
2022-11-03T07:07:46.657Z,957.72
2022-11-03T07:08:45.657Z,957.73
2022-11-03T07:09:45.646Z,957.65
2022-11-03T07:10:45.665Z,957.66
2022-11-03T07:11:45.619Z,957.58
2022-11-03T07:12:45.599Z,957.67
2022-11-03T07:13:45.602Z,957.58
2022-11-03T07:14:45.567Z,957.64
2022-11-03T07:15:45.567Z,957.60
2022-11-03T07:16:45.580Z,957.63
2022-11-03T07:17:45.535Z,957.61
2022-11-03T07:18:45.508Z,957.70
2022-11-03T07:19:45.505Z,957.64
2022-11-03T07:20:45.598Z,957.68
2022-11-03T07:21:45.489Z,957.64
2022-11-03T07:22:45.524Z,957.61
2022-11-03T07:23:47.213Z,957.61
2022-11-03T07:24:45.433Z,957.59
2022-11-03T07:25:45.410Z,957.65
2022-11-03T07:26:45.425Z,957.63
2022-11-03T07:27:45.385Z,957.61
2022-11-03T07:28:45.424Z,957.65
2022-11-03T07:29:45.356Z,957.65
2022-11-03T07:30:45.353Z,957.62
2022-11-03T07:31:45.349Z,957.68
2022-11-03T07:32:45.323Z,957.64
2022-11-03T07:33:45.299Z,957.69
2022-11-03T07:34:45.345Z,957.73
2022-11-03T07:36:13.740Z,957.76
2022-11-03T07:36:48.920Z,957.75
2022-11-03T07:37:46.248Z,957.73
2022-11-03T07:38:45.282Z,957.74
2022-11-03T07:39:45.211Z,957.72
2022-11-03T07:40:45.247Z,957.68
2022-11-03T07:41:45.209Z,957.68
2022-11-03T07:42:45.190Z,957.65
2022-11-03T07:43:45.166Z,957.68
2022-11-03T07:44:45.153Z,957.61
2022-11-03T07:45:45.301Z,957.65
2022-11-03T07:46:45.247Z,957.61
2022-11-03T07:47:45.096Z,957.59
2022-11-03T07:48:45.088Z,957.61
2022-11-03T07:49:45.075Z,957.58
2022-11-03T07:50:45.065Z,957.58
2022-11-03T07:51:45.091Z,957.60
2022-11-03T07:52:45.109Z,957.59
2022-11-03T07:53:45.024Z,957.50
2022-11-03T07:54:45.154Z,957.48
2022-11-03T07:55:45.015Z,957.46
2022-11-03T07:56:44.994Z,957.42
2022-11-03T07:57:44.981Z,957.39
2022-11-03T07:58:46.544Z,957.44
2022-11-03T07:59:44.944Z,957.44
2022-11-03T08:00:44.984Z,957.45
2022-11-03T08:01:45.064Z,957.38
2022-11-03T08:02:44.986Z,957.39
2022-11-03T08:03:44.874Z,957.41
2022-11-03T08:04:44.923Z,957.36
2022-11-03T08:05:44.957Z,957.35
2022-11-03T08:06:44.917Z,957.36
2022-11-03T08:07:44.829Z,957.34
2022-11-03T08:08:44.906Z,957.34
2022-11-03T08:09:44.824Z,957.30
2022-11-03T08:10:44.847Z,957.32
2022-11-03T08:11:44.830Z,957.31
2022-11-03T08:12:44.822Z,957.37
2022-11-03T08:13:44.814Z,957.34
2022-11-03T08:14:44.812Z,957.32
2022-11-03T08:15:44.936Z,957.32
2022-11-03T08:16:44.848Z,957.32
2022-11-03T08:17:44.701Z,957.31
2022-11-03T08:18:44.877Z,957.29
2022-11-03T08:19:44.751Z,957.31
2022-11-03T08:20:44.684Z,957.35
2022-11-03T08:21:44.875Z,957.39
2022-11-03T08:22:59.126Z,957.41
2022-11-03T08:23:47.527Z,957.38
2022-11-03T08:24:44.784Z,957.37
2022-11-03T08:25:44.800Z,957.35
2022-11-03T08:26:44.795Z,957.34
2022-11-03T08:27:44.690Z,957.37
2022-11-03T08:28:44.714Z,957.34
2022-11-03T08:29:44.706Z,957.40
2022-11-03T08:30:44.628Z,957.35
2022-11-03T08:31:44.652Z,957.38
2022-11-03T08:32:44.563Z,957.36
2022-11-03T08:33:44.568Z,957.37
2022-11-03T08:34:44.786Z,957.34
2022-11-03T08:35:44.651Z,957.35
2022-11-03T08:36:44.744Z,957.38
2022-11-03T08:37:44.644Z,957.38
2022-11-03T08:38:45.894Z,957.36
2022-11-03T08:39:44.600Z,957.31
2022-11-03T08:40:44.600Z,957.33
2022-11-03T08:41:44.600Z,957.31
2022-11-03T08:42:44.626Z,957.26
2022-11-03T08:43:44.586Z,957.26
2022-11-03T08:44:44.565Z,957.25
2022-11-03T08:45:45.243Z,957.25
2022-11-03T08:46:44.619Z,957.24
2022-11-03T08:47:44.323Z,957.21
2022-11-03T08:48:44.647Z,957.23
2022-11-03T08:49:44.349Z,957.22
2022-11-03T08:50:44.611Z,957.22
2022-11-03T08:51:44.886Z,957.22
2022-11-03T08:52:44.593Z,957.22
2022-11-03T08:53:44.456Z,957.21
2022-11-03T08:54:44.685Z,957.22
2022-11-03T08:55:44.150Z,957.23
2022-11-03T08:56:44.185Z,957.31
2022-11-03T08:57:44.115Z,957.33
2022-11-03T08:58:44.200Z,957.35
2022-11-03T08:59:44.092Z,957.35
2022-11-03T09:00:44.177Z,957.37
2022-11-03T09:01:44.131Z,957.35
2022-11-03T09:02:44.131Z,957.39
2022-11-03T09:03:44.102Z,957.36
2022-11-03T09:04:44.066Z,957.32
2022-11-03T09:05:44.017Z,957.30
2022-11-03T09:06:44.015Z,957.34
2022-11-03T09:10:44.984Z,957.19
2022-11-03T09:11:43.926Z,957.18
2022-11-03T09:12:43.920Z,957.12
2022-11-03T09:13:43.905Z,957.18
2022-11-03T09:14:43.925Z,957.20
2022-11-03T09:15:43.905Z,957.22
2022-11-03T09:16:43.999Z,957.26
2022-11-03T09:17:45.663Z,957.24
2022-11-03T09:18:43.937Z,957.26
2022-11-03T09:19:43.823Z,957.28
2022-11-03T09:20:43.859Z,957.25
2022-11-03T09:21:43.805Z,957.25
2022-11-03T09:22:43.771Z,957.29
2022-11-03T09:23:43.758Z,957.25
2022-11-03T09:24:43.751Z,957.21
2022-11-03T09:25:43.728Z,957.20
2022-11-03T09:26:43.711Z,957.21
2022-11-03T09:27:43.736Z,957.24
2022-11-03T09:28:43.690Z,957.24
2022-11-03T09:30:11.026Z,957.20
2022-11-03T09:30:45.609Z,957.21
2022-11-03T09:31:43.641Z,957.16
2022-11-03T09:32:43.644Z,957.19
2022-11-03T09:33:43.650Z,957.19
2022-11-03T09:34:43.616Z,957.18
2022-11-03T09:35:43.588Z,957.20
2022-11-03T09:36:43.764Z,957.19
2022-11-03T09:37:43.557Z,957.23
2022-11-03T09:38:43.640Z,957.24
2022-11-03T09:39:43.575Z,957.26
2022-11-03T09:40:43.571Z,957.26
2022-11-03T09:41:57.253Z,957.24
2022-11-03T09:42:44.684Z,957.27
2022-11-03T09:43:43.472Z,957.26
2022-11-03T09:44:43.475Z,957.24
2022-11-03T09:45:43.482Z,957.28
2022-11-03T09:46:43.574Z,957.25
2022-11-03T09:47:43.527Z,957.28
2022-11-03T09:48:43.413Z,957.23
2022-11-03T09:49:43.395Z,957.23
2022-11-03T09:50:43.495Z,957.19
2022-11-03T09:51:43.392Z,957.18
2022-11-03T09:52:47.383Z,957.15
2022-11-03T09:53:44.770Z,957.19
2022-11-03T09:54:43.346Z,957.12
2022-11-03T09:55:43.328Z,957.13
2022-11-03T09:56:43.310Z,957.09
2022-11-03T09:57:43.473Z,957.10
2022-11-03T09:58:43.325Z,957.08
2022-11-03T09:59:43.280Z,957.05
2022-11-03T10:00:43.305Z,957.03
2022-11-03T10:01:43.393Z,956.98
2022-11-03T10:02:43.423Z,956.99
2022-11-03T10:03:43.241Z,956.94
2022-11-03T10:04:43.311Z,956.84
2022-11-03T10:05:43.193Z,956.81
2022-11-03T10:06:43.720Z,956.80
2022-11-03T10:07:43.200Z,956.77
2022-11-03T10:08:43.133Z,956.83
2022-11-03T10:09:43.148Z,956.81
2022-11-03T10:10:43.260Z,956.81
2022-11-03T10:11:43.083Z,956.78
2022-11-03T10:12:43.165Z,956.82
2022-11-03T10:13:43.057Z,956.84
2022-11-03T10:14:43.068Z,956.86
2022-11-03T10:15:43.066Z,956.88
2022-11-03T10:16:43.246Z,956.81
2022-11-03T10:17:43.040Z,956.78
2022-11-03T10:18:43.035Z,956.79
2022-11-03T10:19:42.994Z,956.72
2022-11-03T10:20:42.984Z,956.72
2022-11-03T10:21:42.993Z,956.67
2022-11-03T10:22:42.976Z,956.67
2022-11-03T10:23:42.945Z,956.63
2022-11-03T10:24:42.979Z,956.56
2022-11-03T10:25:42.896Z,956.58
2022-11-03T10:26:43.014Z,956.53
2022-11-03T10:27:42.953Z,956.47
2022-11-03T10:28:44.322Z,956.48
2022-11-03T10:29:45.461Z,956.48
2022-11-03T10:30:58.000Z,956.49
2022-11-03T10:31:43.827Z,956.49
2022-11-03T10:32:42.833Z,956.48
2022-11-03T10:33:42.812Z,956.49
2022-11-03T10:34:43.524Z,956.44
2022-11-03T10:35:42.751Z,956.42
2022-11-03T10:36:45.576Z,956.42
2022-11-03T10:37:43.752Z,956.45
2022-11-03T10:38:42.740Z,956.40
2022-11-03T10:39:42.740Z,956.48
2022-11-03T10:40:47.781Z,956.51
2022-11-03T10:41:43.679Z,956.44
2022-11-03T10:42:42.688Z,956.36
2022-11-03T10:43:42.650Z,956.37
2022-11-03T10:44:42.678Z,956.34
2022-11-03T10:45:42.666Z,956.40
2022-11-03T10:46:50.701Z,956.43
2022-11-03T10:47:43.616Z,956.39
2022-11-03T10:48:43.030Z,956.34
2022-11-03T10:49:43.998Z,956.26
2022-11-03T10:50:43.537Z,956.19
2022-11-03T10:51:42.686Z,956.12
2022-11-03T10:52:42.665Z,956.17
2022-11-03T10:53:42.509Z,956.19
2022-11-03T10:54:42.525Z,956.13
2022-11-03T10:55:42.496Z,956.05
2022-11-03T10:56:42.733Z,955.97
2022-11-03T10:57:42.495Z,955.96
2022-11-03T10:58:42.665Z,955.86
2022-11-03T10:59:42.420Z,955.84
2022-11-03T11:00:42.955Z,955.80
2022-11-03T11:01:42.521Z,955.82
2022-11-03T11:02:42.499Z,955.77
2022-11-03T11:03:42.723Z,955.74
2022-11-03T11:04:42.416Z,955.70
2022-11-03T11:05:42.335Z,955.70
2022-11-03T11:06:42.480Z,955.73
2022-11-03T11:07:42.406Z,955.61
2022-11-03T11:08:42.472Z,955.58
2022-11-03T11:09:42.460Z,955.58
2022-11-03T11:10:42.393Z,955.58
2022-11-03T11:11:42.247Z,955.64
2022-11-03T11:12:42.365Z,955.65
2022-11-03T11:13:42.228Z,955.60
2022-11-03T11:14:42.377Z,955.55
2022-11-03T11:15:42.239Z,955.54
2022-11-03T11:16:42.178Z,955.55
2022-11-03T11:17:42.178Z,955.50
2022-11-03T11:18:42.297Z,955.44
2022-11-03T11:19:42.154Z,955.39
2022-11-03T11:20:42.140Z,955.33
2022-11-03T11:21:42.217Z,955.30
2022-11-03T11:22:42.268Z,955.24
2022-11-03T11:23:42.098Z,955.20
2022-11-03T11:24:42.534Z,955.19
2022-11-03T11:25:42.084Z,955.16
2022-11-03T11:26:42.067Z,955.23
2022-11-03T11:27:42.095Z,955.23
2022-11-03T11:28:42.205Z,955.18
2022-11-03T11:29:42.006Z,955.11
2022-11-03T11:30:42.016Z,955.13
2022-11-03T11:31:41.995Z,955.06
2022-11-03T11:32:43.451Z,955.07
2022-11-03T11:33:41.973Z,955.01
2022-11-03T11:34:41.967Z,955.02
2022-11-03T11:35:41.928Z,954.99
2022-11-03T11:36:42.056Z,954.92
2022-11-03T11:37:41.915Z,954.83
2022-11-03T11:38:42.058Z,954.90
2022-11-03T11:39:41.890Z,954.85
2022-11-03T11:40:41.867Z,954.82
2022-11-03T11:41:41.844Z,954.82
2022-11-03T11:42:41.934Z,954.79
2022-11-03T11:43:41.841Z,954.76
2022-11-03T11:44:41.846Z,954.70
2022-11-03T11:45:41.820Z,954.68
2022-11-03T11:46:41.885Z,954.70
2022-11-03T11:47:41.745Z,954.67
2022-11-03T11:48:42.849Z,954.74
2022-11-03T11:49:41.732Z,954.65
2022-11-03T11:50:41.791Z,954.64
2022-11-03T11:51:41.741Z,954.63
2022-11-03T11:52:41.712Z,954.56
2022-11-03T11:53:41.687Z,954.55
2022-11-03T11:54:41.659Z,954.52
2022-11-03T11:55:41.645Z,954.46
2022-11-03T11:56:41.664Z,954.46
2022-11-03T11:57:41.648Z,954.45
2022-11-03T11:58:42.462Z,954.43
2022-11-03T11:59:41.584Z,954.38
2022-11-03T12:00:43.066Z,954.36
2022-11-03T12:01:41.738Z,954.40
2022-11-03T12:02:41.667Z,954.36
2022-11-03T12:03:41.583Z,954.31
2022-11-03T12:04:41.669Z,954.26
2022-11-03T12:05:41.500Z,954.21
2022-11-03T12:06:41.670Z,954.28
2022-11-03T12:07:41.469Z,954.18
2022-11-03T12:08:41.641Z,954.20
2022-11-03T12:09:41.645Z,954.14
2022-11-03T12:10:41.496Z,954.16
2022-11-03T12:11:45.695Z,954.12
2022-11-03T12:12:42.474Z,954.07
2022-11-03T12:13:41.426Z,954.09
2022-11-03T12:14:41.421Z,954.07
2022-11-03T12:15:41.416Z,954.02
2022-11-03T12:16:41.393Z,953.98
2022-11-03T12:17:41.328Z,953.96
2022-11-03T12:18:46.095Z,953.89
2022-11-03T12:19:42.324Z,953.87
2022-11-03T12:20:41.417Z,953.80
2022-11-03T12:21:41.291Z,953.77
2022-11-03T12:22:41.387Z,953.73
2022-11-03T12:23:41.257Z,953.68
2022-11-03T12:24:41.370Z,953.67
2022-11-03T12:25:41.222Z,953.68
2022-11-03T12:26:41.281Z,953.64
2022-11-03T12:27:41.246Z,953.60
2022-11-03T12:28:41.203Z,953.58
2022-11-03T12:29:41.177Z,953.58
2022-11-03T12:30:41.231Z,953.49
2022-11-03T12:31:41.202Z,953.48
2022-11-03T12:32:41.290Z,953.41